Time;durP1;ratioP1;P1;durP2;ratioP2;P2;SDS_P1;SDS_P2;PMS_P1;PMS_P2;Temp;Humidity;BMP_temperature;BMP_pressure;BME280_temperature;BME280_humidity;BME280_pressure;Samples;Min_cycle;Max_cycle;Signal;HPM_P1;HPM_P2
2020/12/26 00:02:13;;;;;;;17.07;10.57;;;2.00;99.90;;;;;;5013756;28;20529;-67
2020/12/26 00:04:38;;;;;;;16.53;9.90;;;2.10;99.90;;;;;;5013496;28;20180;-66
2020/12/26 00:07:05;;;;;;;17.63;9.13;;;1.90;99.90;;;;;;5013380;28;20193;-66
2020/12/26 00:09:31;;;;;;;20.33;10.47;;;1.70;99.90;;;;;;5010766;28;20244;-67
2020/12/26 00:11:56;;;;;;;21.60;11.60;;;1.70;99.90;;;;;;5013463;28;20828;-65
2020/12/26 00:14:27;;;;;;;16.73;9.87;;;1.60;99.90;;;;;;5013179;28;20271;-67
2020/12/26 00:16:54;;;;;;;16.27;9.57;;;1.50;99.90;;;;;;5013178;28;20173;-67
2020/12/26 00:19:27;;;;;;;13.43;8.63;;;1.40;99.90;;;;;;5013279;28;20936;-66
2020/12/26 00:21:52;;;;;;;16.53;9.27;;;1.30;99.90;;;;;;5012964;28;20419;-66
2020/12/26 00:24:18;;;;;;;19.00;9.57;;;1.30;99.90;;;;;;5013081;28;20462;-66
2020/12/26 00:26:44;;;;;;;16.00;9.67;;;1.30;99.90;;;;;;5013090;28;20180;-66
2020/12/26 00:29:10;;;;;;;16.80;9.10;;;1.20;99.90;;;;;;5012908;28;20196;-67
2020/12/26 00:31:36;;;;;;;13.43;8.20;;;1.20;99.90;;;;;;5012747;28;20188;-67
2020/12/26 00:34:02;;;;;;;12.97;9.27;;;1.20;99.90;;;;;;5012881;28;20472;-68
2020/12/26 00:36:27;;;;;;;17.53;9.00;;;1.30;99.90;;;;;;5012835;28;20173;-67
2020/12/26 00:38:53;;;;;;;13.97;8.30;;;1.30;99.90;;;;;;5012719;28;20176;-68
2020/12/26 00:41:18;;;;;;;15.60;8.97;;;1.30;99.90;;;;;;5012725;28;20188;-66
2020/12/26 00:43:44;;;;;;;11.80;8.57;;;1.30;99.90;;;;;;5012928;28;20188;-67
2020/12/26 00:46:10;;;;;;;14.13;8.30;;;1.30;99.90;;;;;;5012621;28;20180;-67
2020/12/26 00:48:36;;;;;;;13.77;8.33;;;1.30;99.90;;;;;;5012415;28;20624;-67
2020/12/26 00:51:02;;;;;;;14.00;8.13;;;1.30;99.90;;;;;;5012381;28;20414;-67
2020/12/26 00:53:29;;;;;;;13.10;8.33;;;1.30;99.90;;;;;;5012613;28;20163;-66
2020/12/26 00:55:54;;;;;;;16.83;9.07;;;1.30;99.90;;;;;;5012245;28;20422;-69
2020/12/26 00:58:20;;;;;;;13.97;9.33;;;1.40;99.90;;;;;;4996707;28;20550;-69
2020/12/26 01:00:46;;;;;;;15.80;9.27;;;1.40;99.90;;;;;;5012378;28;20177;-68
2020/12/26 01:03:11;;;;;;;13.53;8.10;;;1.50;99.90;;;;;;4994656;28;20193;-68
2020/12/26 01:05:37;;;;;;;18.03;9.17;;;1.40;99.90;;;;;;5012141;28;20186;-67
2020/12/26 01:08:02;;;;;;;15.80;8.43;;;1.40;99.90;;;;;;5012008;28;20601;-67
2020/12/26 01:10:28;;;;;;;15.03;9.23;;;1.50;99.90;;;;;;5012228;28;20688;-67
2020/12/26 01:12:54;;;;;;;15.07;8.70;;;1.60;99.90;;;;;;5011926;28;20547;-68
2020/12/26 01:15:19;;;;;;;15.90;9.00;;;1.60;99.90;;;;;;5012003;28;20168;-67
2020/12/26 01:17:45;;;;;;;17.13;8.33;;;1.70;99.90;;;;;;5012101;28;20681;-68
2020/12/26 01:20:11;;;;;;;12.27;8.00;;;1.90;99.90;;;;;;5011730;28;20204;-67
2020/12/26 01:22:37;;;;;;;15.93;8.63;;;2.00;99.90;;;;;;5011818;28;20186;-67
2020/12/26 01:25:06;;;;;;;12.50;7.90;;;2.10;99.90;;;;;;5011951;28;20555;-68
2020/12/26 01:27:32;;;;;;;13.47;7.50;;;2.30;99.90;;;;;;5011693;28;20183;-67
2020/12/26 01:29:58;;;;;;;12.03;8.07;;;2.10;99.90;;;;;;5011664;28;20487;-68
2020/12/26 01:32:27;;;;;;;10.50;7.33;;;2.00;99.90;;;;;;5011670;28;20885;-68
2020/12/26 01:34:56;;;;;;;10.63;7.70;;;2.00;99.90;;;;;;5011520;28;20501;-68
2020/12/26 01:37:22;;;;;;;14.63;8.30;;;1.80;99.90;;;;;;5011656;28;20446;-67
2020/12/26 01:39:48;;;;;;;12.60;8.53;;;1.80;99.90;;;;;;5011753;28;20424;-67
2020/12/26 01:42:13;;;;;;;14.57;8.80;;;1.70;99.90;;;;;;5011798;28;20543;-68
2020/12/26 01:44:39;;;;;;;12.13;7.43;;;1.70;99.90;;;;;;5011559;28;20251;-66
2020/12/26 01:47:06;;;;;;;13.20;8.80;;;1.80;99.90;;;;;;5011496;28;20188;-66
2020/12/26 01:49:32;;;;;;;20.33;8.60;;;1.90;99.90;;;;;;5011221;28;20535;-68
2020/12/26 01:51:58;;;;;;;12.33;7.90;;;2.10;99.90;;;;;;5011435;28;20423;-67
2020/12/26 01:54:25;;;;;;;11.83;7.60;;;2.20;99.90;;;;;;4993845;28;20181;-69
2020/12/26 01:56:52;;;;;;;11.33;7.13;;;2.20;99.90;;;;;;5011485;28;20446;-65
2020/12/26 01:59:18;;;;;;;14.43;6.97;;;2.20;99.90;;;;;;5013424;28;20685;-67
2020/12/26 02:01:43;;;;;;;12.30;7.77;;;2.20;99.90;;;;;;5011335;28;20428;-67
2020/12/26 02:04:12;;;;;;;11.93;7.23;;;2.20;99.90;;;;;;5011693;28;20634;-68
2020/12/26 02:06:42;;;;;;;12.57;7.67;;;2.20;99.90;;;;;;5011224;28;20192;-68
2020/12/26 02:09:08;;;;;;;12.50;7.30;;;2.20;99.90;;;;;;5011256;28;20459;-68
2020/12/26 02:11:34;;;;;;;14.20;7.50;;;2.10;99.90;;;;;;5011122;28;20412;-68
2020/12/26 02:13:59;;;;;;;15.17;8.33;;;2.00;99.90;;;;;;5010969;28;20423;-68
2020/12/26 02:16:25;;;;;;;14.37;7.27;;;2.00;99.90;;;;;;5010996;28;20255;-67
2020/12/26 02:18:51;;;;;;;10.37;7.43;;;2.10;99.90;;;;;;5011206;28;20918;-68
2020/12/26 02:21:18;;;;;;;10.50;6.60;;;2.10;99.90;;;;;;5011152;28;20184;-67
2020/12/26 02:23:44;;;;;;;14.07;6.80;;;2.10;99.90;;;;;;5010915;28;20215;-68
2020/12/26 02:26:10;;;;;;;12.77;6.90;;;2.10;99.90;;;;;;5011061;28;20510;-68
2020/12/26 02:28:36;;;;;;;10.13;6.80;;;2.10;99.90;;;;;;5010991;28;20538;-67
2020/12/26 02:31:02;;;;;;;11.27;7.03;;;2.10;99.90;;;;;;5011006;28;20195;-67
2020/12/26 02:33:27;;;;;;;9.97;6.40;;;2.10;99.90;;;;;;5013109;28;20180;-68
2020/12/26 02:35:53;;;;;;;14.97;8.33;;;2.00;99.90;;;;;;5015023;28;20550;-67
2020/12/26 02:38:19;;;;;;;16.60;7.93;;;2.00;99.90;;;;;;5015134;28;20207;-68
2020/12/26 02:40:49;;;;;;;11.50;7.07;;;2.00;99.90;;;;;;5015164;28;20192;-67
2020/12/26 02:43:25;;;;;;;13.90;7.80;;;2.00;99.90;;;;;;5014818;28;20838;-67
2020/12/26 02:45:55;;;;;;;14.93;7.30;;;2.10;99.90;;;;;;5014934;28;20426;-68
2020/12/26 02:48:21;;;;;;;10.77;7.70;;;2.00;99.90;;;;;;5015031;28;20482;-66
2020/12/26 02:50:48;;;;;;;9.30;6.93;;;1.80;99.90;;;;;;5014668;28;20778;-68
2020/12/26 02:53:13;;;;;;;12.07;7.53;;;1.70;99.90;;;;;;5014888;28;20424;-69
2020/12/26 02:55:39;;;;;;;10.47;7.93;;;1.60;99.90;;;;;;5014575;28;20431;-69
2020/12/26 02:58:05;;;;;;;12.30;7.53;;;1.50;99.90;;;;;;5015710;28;20247;-68
2020/12/26 03:00:31;;;;;;;10.90;7.43;;;1.30;99.90;;;;;;5014606;28;20176;-67
2020/12/26 03:02:56;;;;;;;14.40;7.90;;;1.40;99.90;;;;;;5014547;28;20626;-68
2020/12/26 03:05:22;;;;;;;10.77;7.40;;;1.30;99.90;;;;;;5014944;28;20207;-68
2020/12/26 03:07:48;;;;;;;11.07;7.37;;;1.20;99.90;;;;;;5014446;28;20650;-68
2020/12/26 03:10:14;;;;;;;16.33;8.40;;;1.20;99.90;;;;;;5014300;28;20635;-66
2020/12/26 03:12:39;;;;;;;13.50;7.30;;;1.20;99.90;;;;;;5014106;28;20176;-68
2020/12/26 03:15:05;;;;;;;16.37;7.30;;;1.30;99.90;;;;;;5014533;28;20283;-67
2020/12/26 03:17:31;;;;;;;11.23;7.40;;;1.40;99.90;;;;;;5014398;28;20180;-67
2020/12/26 03:19:58;;;;;;;9.93;7.63;;;1.40;99.90;;;;;;5014138;28;20529;-67
2020/12/26 03:22:25;;;;;;;9.53;6.60;;;1.60;99.90;;;;;;5014255;28;20184;-67
2020/12/26 03:24:51;;;;;;;9.60;6.40;;;1.50;99.90;;;;;;5014400;28;20430;-68
2020/12/26 03:27:17;;;;;;;12.63;7.23;;;1.60;99.90;;;;;;5014267;28;20423;-68
2020/12/26 03:29:43;;;;;;;10.60;7.17;;;1.50;99.90;;;;;;5013935;28;20805;-68
2020/12/26 03:32:09;;;;;;;11.47;6.80;;;1.60;99.90;;;;;;5014112;28;20177;-67
2020/12/26 03:34:34;;;;;;;13.03;7.23;;;1.60;99.90;;;;;;5014175;28;20181;-67
2020/12/26 03:37:00;;;;;;;9.30;7.10;;;1.70;99.90;;;;;;5014019;28;20775;-68
2020/12/26 03:39:26;;;;;;;12.67;7.03;;;1.70;99.90;;;;;;5013830;28;20187;-67
2020/12/26 03:41:51;;;;;;;9.63;7.00;;;1.70;99.90;;;;;;5013909;28;20181;-68
2020/12/26 03:44:17;;;;;;;10.60;6.53;;;1.70;99.90;;;;;;5013478;28;20658;-67
2020/12/26 03:46:43;;;;;;;9.37;6.60;;;1.60;99.90;;;;;;5013833;28;20252;-68
2020/12/26 03:49:08;;;;;;;12.37;7.33;;;1.60;99.90;;;;;;5013604;28;20255;-69
2020/12/26 03:51:34;;;;;;;10.10;7.40;;;1.60;99.90;;;;;;5013517;28;20172;-66
2020/12/26 03:53:59;;;;;;;13.03;7.37;;;1.60;99.90;;;;;;5013607;28;20185;-68
2020/12/26 03:56:25;;;;;;;11.30;7.47;;;1.60;99.90;;;;;;5013683;28;20183;-67
2020/12/26 03:58:51;;;;;;;12.20;6.97;;;1.70;99.90;;;;;;5020482;28;20611;-67
2020/12/26 04:01:16;;;;;;;14.50;7.30;;;1.70;99.90;;;;;;5017777;28;20234;-69
2020/12/26 04:03:42;;;;;;;13.67;7.30;;;1.70;99.90;;;;;;5018918;28;20188;-67
2020/12/26 04:06:07;;;;;;;11.63;7.20;;;1.70;99.90;;;;;;5016217;28;20215;-67
2020/12/26 04:08:33;;;;;;;8.43;6.37;;;1.80;99.90;;;;;;5011548;28;20549;-67
2020/12/26 04:10:58;;;;;;;13.43;7.17;;;1.60;99.90;;;;;;5020448;28;20582;-68
2020/12/26 04:13:24;;;;;;;10.20;7.70;;;1.60;99.90;;;;;;5023280;28;20179;-68
2020/12/26 04:15:49;;;;;;;15.00;7.37;;;1.70;99.90;;;;;;5019314;28;20191;-69
2020/12/26 04:18:15;;;;;;;12.53;7.63;;;1.60;99.90;;;;;;5003531;28;20189;-68
2020/12/26 04:20:41;;;;;;;10.67;7.20;;;1.50;99.90;;;;;;5000267;28;20538;-69
2020/12/26 04:23:06;;;;;;;12.93;8.00;;;1.50;99.90;;;;;;5025393;28;20519;-68
2020/12/26 04:25:32;;;;;;;14.33;7.60;;;1.40;99.90;;;;;;5031555;28;20183;-66
2020/12/26 04:27:58;;;;;;;12.40;8.37;;;1.40;99.90;;;;;;5023361;28;20187;-68
2020/12/26 04:30:24;;;;;;;11.30;7.93;;;1.50;99.90;;;;;;5031077;28;20527;-67
2020/12/26 04:32:53;;;;;;;14.27;7.57;;;1.50;99.90;;;;;;5028492;28;20242;-68
2020/12/26 04:35:21;;;;;;;16.83;8.00;;;1.50;99.90;;;;;;5019150;28;20419;-67
2020/12/26 04:37:47;;;;;;;13.37;7.67;;;1.50;99.90;;;;;;5024270;28;20502;-67
2020/12/26 04:40:13;;;;;;;10.90;6.73;;;1.50;99.90;;;;;;5017062;28;20423;-69
2020/12/26 04:42:39;;;;;;;11.70;7.30;;;1.70;99.90;;;;;;5022321;28;20430;-68
2020/12/26 04:45:05;;;;;;;10.50;7.43;;;1.70;99.90;;;;;;5019637;28;20176;-68
2020/12/26 04:47:40;;;;;;;13.20;7.73;;;1.80;99.90;;;;;;5030068;28;20699;-67
2020/12/26 04:50:06;;;;;;;17.07;7.80;;;1.80;99.90;;;;;;5022826;28;20219;-68
2020/12/26 04:52:35;;;;;;;13.30;7.03;;;1.80;99.90;;;;;;5019961;28;20466;-66
2020/12/26 04:55:04;;;;;;;11.23;7.53;;;1.70;99.90;;;;;;5018041;28;20407;-67
2020/12/26 04:57:36;;;;;;;11.70;6.73;;;1.80;99.90;;;;;;5021289;28;20454;-69
2020/12/26 05:00:05;;;;;;;11.10;6.20;;;1.90;99.90;;;;;;5004524;28;20425;-66
2020/12/26 05:02:36;;;;;;;11.30;6.90;;;1.90;99.90;;;;;;5006942;28;20416;-69
2020/12/26 05:05:04;;;;;;;14.33;6.97;;;1.90;99.90;;;;;;5002844;28;20759;-67
2020/12/26 05:07:32;;;;;;;8.23;6.50;;;2.10;99.90;;;;;;4997259;28;20456;-67
2020/12/26 05:09:58;;;;;;;11.27;6.53;;;2.10;99.90;;;;;;4999024;28;20455;-69
2020/12/26 05:12:24;;;;;;;14.07;6.90;;;2.00;99.90;;;;;;5008241;28;20408;-68
2020/12/26 05:14:51;;;;;;;10.83;7.40;;;2.00;99.90;;;;;;5004010;28;20177;-69
2020/12/26 05:17:18;;;;;;;13.83;6.97;;;2.10;99.90;;;;;;5002420;28;20417;-68
2020/12/26 05:19:44;;;;;;;12.63;6.97;;;2.10;99.90;;;;;;4999661;28;20435;-67
2020/12/26 05:22:09;;;;;;;11.33;7.27;;;2.20;99.90;;;;;;5005952;28;20420;-68
2020/12/26 05:24:35;;;;;;;9.00;6.50;;;2.20;99.90;;;;;;5007749;28;20474;-66
2020/12/26 05:27:01;;;;;;;11.53;7.53;;;2.20;99.90;;;;;;4996165;28;20543;-68
2020/12/26 05:29:28;;;;;;;7.47;5.90;;;2.10;99.90;;;;;;5001607;28;20224;-68
2020/12/26 05:31:59;;;;;;;11.57;6.67;;;2.10;99.90;;;;;;5005093;28;20187;-66
2020/12/26 05:34:39;;;;;;;11.60;7.07;;;2.10;99.90;;;;;;5004316;28;20877;-67
2020/12/26 05:37:06;;;;;;;9.30;6.47;;;2.20;99.90;;;;;;4982882;28;20420;-68
2020/12/26 05:39:37;;;;;;;13.97;6.87;;;2.20;99.90;;;;;;5008427;28;20474;-69
2020/12/26 05:42:04;;;;;;;11.63;6.40;;;2.20;99.90;;;;;;5003420;28;20819;-67
2020/12/26 05:44:35;;;;;;;9.17;6.40;;;2.30;99.90;;;;;;4999132;28;20784;-67
2020/12/26 05:47:03;;;;;;;9.70;6.30;;;2.40;99.90;;;;;;4992161;28;20507;-67
2020/12/26 05:49:31;;;;;;;10.47;6.87;;;2.40;99.90;;;;;;4999343;28;20492;-68
2020/12/26 05:52:03;;;;;;;13.03;6.73;;;2.50;99.90;;;;;;4998911;28;20773;-69
2020/12/26 05:54:30;;;;;;;11.53;6.77;;;2.50;99.90;;;;;;4994662;28;20420;-66
2020/12/26 05:57:15;;;;;;;10.97;6.67;;;2.50;99.90;;;;;;5000009;28;20431;-67
2020/12/26 05:59:51;;;;;;;12.03;7.00;;;2.50;99.90;;;;;;5017373;28;20459;-67
2020/12/26 06:02:27;;;;;;;9.27;6.93;;;2.50;99.90;;;;;;5015463;28;20513;-67
2020/12/26 06:04:57;;;;;;;13.33;7.37;;;2.50;99.90;;;;;;5018138;28;20419;-67
2020/12/26 06:07:25;;;;;;;10.30;6.67;;;2.50;99.90;;;;;;5024773;28;20403;-69
2020/12/26 06:09:54;;;;;;;10.53;6.60;;;2.60;99.90;;;;;;5009978;28;20463;-68
2020/12/26 06:12:21;;;;;;;17.33;7.53;;;2.60;99.90;;;;;;5013667;28;20904;-68
2020/12/26 06:14:48;;;;;;;12.77;7.80;;;2.60;99.90;;;;;;5027108;28;20514;-67
2020/12/26 06:17:44;;;;;;;10.93;6.07;;;2.60;99.90;;;;;;5025236;28;20411;-67
2020/12/26 06:20:09;;;;;;;14.20;6.77;;;2.50;99.90;;;;;;5014023;28;20414;-67
2020/12/26 06:22:43;;;;;;;10.97;6.47;;;2.50;99.90;;;;;;5024198;28;20565;-66
2020/12/26 06:25:14;;;;;;;13.77;6.33;;;2.50;99.90;;;;;;5025014;28;20180;-67
2020/12/26 06:27:52;;;;;;;13.53;6.60;;;2.40;99.90;;;;;;5015557;28;21150;-67
2020/12/26 06:30:19;;;;;;;9.77;6.17;;;2.40;99.90;;;;;;5009963;28;20411;-66
2020/12/26 06:32:46;;;;;;;6.13;4.83;;;2.40;99.90;;;;;;5013471;28;20474;-66
2020/12/26 06:35:13;;;;;;;9.83;5.60;;;2.30;99.90;;;;;;5022794;28;20501;-68
2020/12/26 06:37:39;;;;;;;10.50;5.50;;;2.30;99.90;;;;;;5029214;28;20517;-68
2020/12/26 06:40:23;;;;;;;11.07;5.70;;;2.30;99.90;;;;;;5020018;28;20856;-67
2020/12/26 06:42:49;;;;;;;9.87;6.07;;;2.30;99.90;;;;;;5012228;28;20422;-69
2020/12/26 06:45:35;;;;;;;7.63;5.37;;;2.40;99.90;;;;;;5019536;28;20486;-67
2020/12/26 06:48:01;;;;;;;12.73;5.53;;;2.40;99.90;;;;;;5026190;28;20250;-67
2020/12/26 06:50:32;;;;;;;9.67;5.13;;;2.40;99.90;;;;;;5001848;28;20494;-67
2020/12/26 06:52:58;;;;;;;7.13;5.00;;;2.40;99.90;;;;;;5014915;28;20694;-68
2020/12/26 06:55:44;;;;;;;9.07;5.13;;;2.40;99.90;;;;;;5019229;28;20467;-67
2020/12/26 06:58:22;;;;;;;10.03;5.57;;;2.20;99.90;;;;;;5029396;28;20450;-67
2020/12/26 07:00:49;;;;;;;9.27;5.53;;;2.20;99.90;;;;;;5016013;28;20470;-66
2020/12/26 07:03:15;;;;;;;10.13;6.13;;;2.10;99.90;;;;;;5011523;28;20525;-68
2020/12/26 07:05:40;;;;;;;10.63;6.03;;;2.00;99.90;;;;;;5017707;28;20849;-68
2020/12/26 07:08:06;;;;;;;13.07;6.10;;;1.90;99.90;;;;;;5010522;28;20455;-68
2020/12/26 07:10:35;;;;;;;11.53;6.20;;;1.90;99.90;;;;;;5017370;28;20316;-67
2020/12/26 07:13:00;;;;;;;10.73;5.37;;;1.90;99.90;;;;;;5010385;28;20179;-66
2020/12/26 07:15:32;;;;;;;13.47;6.17;;;1.90;99.90;;;;;;5020061;28;20498;-68
2020/12/26 07:18:23;;;;;;;10.90;6.33;;;2.00;99.90;;;;;;5010579;28;20533;-68
2020/12/26 07:20:54;;;;;;;12.77;6.40;;;2.00;99.90;;;;;;5030653;28;20411;-69
2020/12/26 07:23:19;;;;;;;12.83;6.80;;;1.90;99.90;;;;;;5033488;28;20501;-67
2020/12/26 07:25:47;;;;;;;11.30;6.20;;;2.00;99.90;;;;;;5033781;28;20497;-66
2020/12/26 07:28:13;;;;;;;7.73;5.60;;;2.00;99.90;;;;;;5033346;28;20242;-68
2020/12/26 07:30:39;;;;;;;9.07;5.87;;;2.10;99.90;;;;;;5033728;28;20812;-64
2020/12/26 07:33:04;;;;;;;9.97;5.40;;;2.10;99.90;;;;;;5022370;28;20559;-68
2020/12/26 07:35:35;;;;;;;10.20;6.00;;;2.20;99.90;;;;;;5025478;28;20173;-67
2020/12/26 07:38:09;;;;;;;8.33;6.10;;;2.20;99.90;;;;;;5014179;28;20191;-67
2020/12/26 07:40:40;;;;;;;9.87;5.23;;;2.30;99.90;;;;;;5016523;28;20482;-66
2020/12/26 07:43:14;;;;;;;9.17;4.80;;;2.30;99.90;;;;;;5033578;28;20497;-69
2020/12/26 07:45:41;;;;;;;8.27;6.17;;;2.20;99.90;;;;;;5029060;28;20417;-67
2020/12/26 07:48:12;;;;;;;10.73;5.40;;;2.10;99.90;;;;;;5026166;28;20408;-67
2020/12/26 07:50:40;;;;;;;10.93;5.50;;;2.20;99.90;;;;;;5013674;28;20418;-67
2020/12/26 07:53:08;;;;;;;9.57;4.40;;;1.90;99.90;;;;;;5019097;28;20455;-68
2020/12/26 07:55:35;;;;;;;9.80;5.97;;;1.70;99.90;;;;;;5022997;28;20510;-66
2020/12/26 07:58:08;;;;;;;9.43;6.57;;;1.60;99.90;;;;;;5014589;28;20423;-67
2020/12/26 08:00:39;;;;;;;10.30;6.13;;;1.70;99.90;;;;;;5025675;28;20419;-68
2020/12/26 08:03:08;;;;;;;12.67;6.20;;;1.70;99.90;;;;;;5015072;28;20415;-67
2020/12/26 08:05:35;;;;;;;12.23;6.90;;;1.70;99.90;;;;;;5012997;28;20415;-67
2020/12/26 08:08:21;;;;;;;11.13;6.43;;;1.70;99.90;;;;;;5012574;28;20407;-67
2020/12/26 08:10:46;;;;;;;10.60;7.03;;;1.70;99.90;;;;;;5031344;28;20851;-67
2020/12/26 08:13:16;;;;;;;11.03;6.47;;;1.70;99.90;;;;;;5032720;28;20533;-66
2020/12/26 08:15:42;;;;;;;12.43;6.07;;;1.70;99.90;;;;;;5027763;28;20226;-67
2020/12/26 08:18:08;;;;;;;13.67;6.87;;;1.60;99.90;;;;;;5012922;28;20931;-67
2020/12/26 08:20:35;;;;;;;11.63;6.90;;;1.50;99.90;;;;;;5012963;28;20411;-68
2020/12/26 08:23:01;;;;;;;13.33;7.73;;;1.40;99.90;;;;;;5023922;28;20173;-68
2020/12/26 08:25:28;;;;;;;14.90;8.13;;;1.50;99.90;;;;;;5012784;28;20415;-66
2020/12/26 08:27:54;;;;;;;15.53;7.47;;;1.70;99.90;;;;;;5012536;28;20227;-67
2020/12/26 08:30:27;;;;;;;10.80;6.77;;;1.70;99.90;;;;;;5012683;28;20901;-66
2020/12/26 08:33:05;;;;;;;10.63;7.60;;;1.70;99.90;;;;;;5032394;28;20426;-66
2020/12/26 08:35:30;;;;;;;10.97;6.47;;;1.70;99.90;;;;;;5031133;28;20749;-67
2020/12/26 08:38:01;;;;;;;11.80;6.53;;;1.80;99.90;;;;;;5012624;28;20499;-66
2020/12/26 08:40:30;;;;;;;12.07;7.40;;;1.70;99.90;;;;;;5012373;28;20206;-67
2020/12/26 08:42:55;;;;;;;10.30;6.93;;;1.70;99.90;;;;;;5022385;28;20411;-69
2020/12/26 08:45:29;;;;;;;14.03;7.73;;;1.70;99.90;;;;;;5028865;28;20429;-65
2020/12/26 08:47:58;;;;;;;12.15;6.95;;;1.70;99.90;;;;;;5031968;28;20525;-67
2020/12/26 08:50:28;;;;;;;10.87;6.97;;;1.70;99.90;;;;;;5021111;28;20453;-67
2020/12/26 08:53:08;;;;;;;15.20;6.87;;;1.80;99.90;;;;;;5020747;28;20774;-67
2020/12/26 08:55:48;;;;;;;9.00;6.57;;;1.90;99.90;;;;;;5026685;28;20423;-67
2020/12/26 08:58:31;;;;;;;10.57;7.50;;;1.90;99.90;;;;;;5033944;28;20530;-67
2020/12/26 09:01:03;;;;;;;10.27;6.67;;;1.90;99.90;;;;;;5010872;28;20458;-67
2020/12/26 09:03:33;;;;;;;10.67;7.30;;;2.00;99.90;;;;;;5016268;28;20434;-67
2020/12/26 09:06:02;;;;;;;11.83;6.87;;;2.00;99.90;;;;;;5021501;28;20900;-67
2020/12/26 09:08:36;;;;;;;12.30;7.50;;;2.00;99.90;;;;;;5023021;28;20447;-67
2020/12/26 09:11:08;;;;;;;11.30;7.67;;;2.00;99.90;;;;;;5028436;28;20469;-68
2020/12/26 09:13:47;;;;;;;14.37;7.30;;;1.90;99.90;;;;;;5013506;28;20439;-65
2020/12/26 09:16:14;;;;;;;14.23;7.57;;;1.90;99.90;;;;;;5015702;28;20459;-68
2020/12/26 09:18:45;;;;;;;12.13;7.57;;;1.90;99.90;;;;;;5025927;28;20423;-67
2020/12/26 09:21:28;;;;;;;14.00;7.63;;;2.00;99.90;;;;;;5027488;28;20929;-68
2020/12/26 09:23:55;;;;;;;11.40;7.47;;;2.00;99.90;;;;;;5012439;28;20480;-66
2020/12/26 09:26:26;;;;;;;11.07;7.03;;;2.10;99.90;;;;;;5013503;28;20430;-66
2020/12/26 09:29:01;;;;;;;13.07;7.77;;;2.00;99.90;;;;;;5010468;28;20450;-66
2020/12/26 09:31:38;;;;;;;13.07;7.90;;;2.10;99.90;;;;;;5000987;28;20426;-67
2020/12/26 09:34:23;;;;;;;12.03;7.37;;;2.30;99.90;;;;;;5019516;28;20482;-66
2020/12/26 09:37:02;;;;;;;11.97;8.03;;;2.40;99.90;;;;;;5027776;28;20414;-67
2020/12/26 09:39:28;;;;;;;13.63;8.23;;;2.50;99.90;;;;;;5024421;28;20464;-67
2020/12/26 09:41:54;;;;;;;16.20;8.40;;;2.60;99.90;;;;;;5014804;28;20414;-67
2020/12/26 09:44:19;;;;;;;11.33;8.00;;;2.60;99.90;;;;;;5017918;28;20179;-68
2020/12/26 09:46:45;;;;;;;10.60;6.33;;;2.80;99.90;;;;;;5024953;28;20183;-66
2020/12/26 09:49:11;;;;;;;11.10;6.53;;;2.80;99.90;;;;;;5016999;28;20192;-68
2020/12/26 09:51:36;;;;;;;8.80;6.80;;;2.90;99.90;;;;;;5029648;28;20168;-68
2020/12/26 09:54:03;;;;;;;15.13;6.80;;;2.80;99.90;;;;;;5024298;28;20200;-67
2020/12/26 09:56:29;;;;;;;12.97;6.87;;;2.80;99.90;;;;;;5022379;28;20180;-66
2020/12/26 09:58:56;;;;;;;12.40;5.47;;;2.80;99.90;;;;;;5012559;28;20509;-67
2020/12/26 10:01:22;;;;;;;13.17;6.93;;;2.90;99.90;;;;;;5010856;28;20172;-66
2020/12/26 10:03:49;;;;;;;11.77;7.50;;;2.90;99.90;;;;;;5011045;28;20425;-66
2020/12/26 10:06:17;;;;;;;11.17;7.30;;;2.90;99.90;;;;;;5011360;28;20259;-66
2020/12/26 10:08:44;;;;;;;11.30;6.90;;;2.90;99.90;;;;;;5010894;28;20475;-66
2020/12/26 10:11:14;;;;;;;12.07;7.37;;;2.90;99.90;;;;;;5010043;28;20416;-68
2020/12/26 10:13:40;;;;;;;13.47;7.07;;;3.00;99.90;;;;;;5010712;28;20507;-67
2020/12/26 10:16:06;;;;;;;11.83;7.80;;;3.00;99.90;;;;;;5010994;28;20427;-67
2020/12/26 10:18:39;;;;;;;14.90;7.43;;;3.10;99.90;;;;;;5011051;28;20474;-67
2020/12/26 10:21:04;;;;;;;13.07;8.37;;;3.10;99.90;;;;;;5010425;28;20446;-68
2020/12/26 10:23:30;;;;;;;11.60;6.10;;;3.10;99.90;;;;;;5010986;28;20424;-67
2020/12/26 10:26:03;;;;;;;11.13;8.73;;;3.20;99.90;;;;;;5010811;28;20654;-66
2020/12/26 10:28:29;;;;;;;7.03;4.77;;;3.20;99.90;;;;;;5010913;28;20200;-68
2020/12/26 10:30:55;;;;;;;6.37;5.17;;;3.20;99.90;;;;;;5010810;28;20419;-67
2020/12/26 10:33:20;;;;;;;9.33;6.80;;;3.20;99.90;;;;;;5010899;28;20898;-66
2020/12/26 10:35:46;;;;;;;13.90;8.53;;;3.30;99.90;;;;;;5011083;28;20583;-68
2020/12/26 10:38:11;;;;;;;12.23;8.07;;;3.30;99.90;;;;;;5010886;28;20177;-67
2020/12/26 10:40:37;;;;;;;9.13;6.53;;;3.30;99.90;;;;;;5010904;28;20263;-67
2020/12/26 10:43:03;;;;;;;12.53;8.53;;;3.30;99.90;;;;;;5010686;28;20529;-67
2020/12/26 10:45:28;;;;;;;14.63;8.43;;;3.30;99.90;;;;;;5011116;28;20271;-67
2020/12/26 10:47:54;;;;;;;11.73;9.20;;;3.40;99.90;;;;;;5010627;28;20165;-67
2020/12/26 10:50:26;;;;;;;16.87;9.43;;;3.50;99.90;;;;;;5009012;28;20208;-66
2020/12/26 10:52:51;;;;;;;13.27;8.43;;;3.60;99.90;;;;;;5009735;28;20176;-67
2020/12/26 10:55:18;;;;;;;14.87;9.17;;;3.50;99.90;;;;;;4995790;28;20426;-67
2020/12/26 10:57:43;;;;;;;13.07;9.07;;;3.50;99.90;;;;;;5014634;28;20180;-66
2020/12/26 11:00:10;;;;;;;14.30;8.70;;;3.50;99.90;;;;;;5016069;28;20557;-66
2020/12/26 11:02:36;;;;;;;10.33;6.63;;;3.50;99.90;;;;;;5014708;28;20192;-66
2020/12/26 11:05:04;;;;;;;11.17;6.90;;;3.50;99.90;;;;;;5014697;28;20929;-68
2020/12/26 11:07:29;;;;;;;13.60;8.80;;;3.60;99.90;;;;;;5014418;28;20265;-66
2020/12/26 11:09:55;;;;;;;10.90;7.70;;;3.60;99.90;;;;;;5014444;28;20547;-66
2020/12/26 11:12:20;;;;;;;5.73;3.73;;;3.60;99.90;;;;;;5014505;28;20288;-66
2020/12/26 11:14:46;;;;;;;8.57;7.10;;;3.50;99.90;;;;;;5014209;28;20204;-65
2020/12/26 11:17:13;;;;;;;16.60;8.17;;;3.50;99.90;;;;;;5014404;28;20283;-67
2020/12/26 11:19:39;;;;;;;15.33;8.47;;;3.50;99.90;;;;;;4996400;28;20929;-66
2020/12/26 11:22:05;;;;;;;13.73;8.50;;;3.70;99.90;;;;;;5014294;28;20505;-64
2020/12/26 11:24:31;;;;;;;10.50;6.43;;;3.70;99.90;;;;;;5014228;28;21047;-65
2020/12/26 11:26:56;;;;;;;8.73;6.40;;;3.80;99.90;;;;;;5014053;28;20272;-65
2020/12/26 11:29:22;;;;;;;6.97;4.13;;;4.00;99.90;;;;;;5014213;28;20200;-64
2020/12/26 11:31:48;;;;;;;8.93;5.13;;;4.10;99.90;;;;;;5013978;28;20208;-66
2020/12/26 11:34:14;;;;;;;9.53;5.77;;;4.30;99.90;;;;;;5014046;28;20206;-66
2020/12/26 11:36:40;;;;;;;8.10;5.20;;;4.40;99.90;;;;;;5013891;28;20952;-65
2020/12/26 11:39:06;;;;;;;9.80;5.13;;;4.60;99.90;;;;;;5013785;28;20510;-66
2020/12/26 11:41:31;;;;;;;10.13;4.80;;;4.70;99.90;;;;;;5013826;28;20226;-65
2020/12/26 11:43:58;;;;;;;8.00;4.77;;;4.60;99.90;;;;;;5013845;28;20203;-66
2020/12/26 11:46:24;;;;;;;5.93;4.63;;;4.70;99.90;;;;;;5013817;28;20207;-66
2020/12/26 11:48:50;;;;;;;10.57;5.37;;;4.60;99.90;;;;;;5013792;28;20814;-66
2020/12/26 11:51:16;;;;;;;11.43;6.47;;;4.60;99.90;;;;;;5013444;28;20415;-66
2020/12/26 11:53:42;;;;;;;7.87;5.17;;;4.60;99.90;;;;;;5013533;28;20521;-66
2020/12/26 11:56:12;;;;;;;8.03;5.60;;;4.70;99.90;;;;;;5013528;28;20173;-65
2020/12/26 11:58:38;;;;;;;5.80;4.43;;;4.70;99.90;;;;;;5015478;28;20243;-65
2020/12/26 12:01:05;;;;;;;11.37;5.50;;;4.50;99.90;;;;;;5013610;28;20971;-66
2020/12/26 12:03:31;;;;;;;13.40;6.80;;;4.30;99.90;;;;;;5013141;28;20438;-65
2020/12/26 12:05:57;;;;;;;8.90;5.47;;;4.30;99.90;;;;;;5013194;28;20416;-67
2020/12/26 12:08:23;;;;;;;10.50;6.30;;;4.10;99.90;;;;;;5012958;28;20491;-65
2020/12/26 12:10:48;;;;;;;8.77;6.33;;;4.10;99.90;;;;;;5013365;28;20458;-66
2020/12/26 12:13:14;;;;;;;8.80;6.83;;;4.20;99.90;;;;;;5013197;28;20243;-66
2020/12/26 12:15:40;;;;;;;9.63;6.70;;;4.20;99.90;;;;;;5013049;28;20523;-67
2020/12/26 12:18:06;;;;;;;11.37;6.17;;;4.30;99.90;;;;;;5013196;28;20258;-67
2020/12/26 12:20:32;;;;;;;12.60;7.00;;;4.10;99.90;;;;;;5012871;28;20185;-66
2020/12/26 12:22:58;;;;;;;10.27;6.30;;;4.00;99.90;;;;;;5013133;28;20987;-66
2020/12/26 12:25:25;;;;;;;10.97;6.50;;;4.10;99.90;;;;;;5013130;28;20411;-66
2020/12/26 12:27:50;;;;;;;11.97;6.30;;;4.00;99.90;;;;;;5013108;28;20177;-65
2020/12/26 12:30:17;;;;;;;10.07;7.13;;;4.00;99.90;;;;;;5012677;28;20494;-66
2020/12/26 12:32:42;;;;;;;11.53;7.03;;;4.00;99.90;;;;;;5012583;28;20180;-65
2020/12/26 12:35:08;;;;;;;9.80;6.83;;;3.90;99.90;;;;;;5012689;28;20422;-66
2020/12/26 12:37:34;;;;;;;13.67;7.83;;;3.90;99.90;;;;;;4995067;28;20299;-65
2020/12/26 12:40:00;;;;;;;11.13;7.03;;;3.90;99.90;;;;;;5012684;28;20419;-64
2020/12/26 12:42:28;;;;;;;12.37;7.57;;;3.90;99.90;;;;;;5012974;28;20427;-62
2020/12/26 12:44:53;;;;;;;11.20;6.60;;;3.90;99.90;;;;;;5012732;28;20187;-66
2020/12/26 12:47:26;;;;;;;11.50;7.57;;;3.90;99.90;;;;;;5012672;28;20515;-64
2020/12/26 12:49:52;;;;;;;12.73;7.57;;;3.90;99.90;;;;;;5012323;28;20200;-65
2020/12/26 12:52:18;;;;;;;11.27;6.37;;;3.90;99.90;;;;;;5012453;28;20412;-65